Terminal Aerodrome Forecast
Issued by NWS

Home | Current Version | Previous Version | Text Only | Print | Product List | Glossary Off
Versions: 1 2 3 4 5 6 7 8 9 10 11 12 13 14 15 16

000
FTUS43 KMPX 300523
TAFRWF
TAF
KRWF 300523Z 3006/3106 25005KT P6SM VCTS SCT035CB BKN060
      TEMPO 3007/3009 4SM SHRA BKN030
     FM300900 30005KT P6SM SCT025 BKN250
     FM301500 36007KT P6SM SCT250=

USA.gov is the U.S. government's official web portal to all federal, state and local government web resources and services.